Time;durP1;ratioP1;P1;durP2;ratioP2;P2;SDS_P1;SDS_P2;PMS_P1;PMS_P2;Temp;Humidity;BMP_temperature;BMP_pressure;BME280_temperature;BME280_humidity;BME280_pressure;Samples;Min_cycle;Max_cycle;Signal;HPM_P1;HPM_P2
2024/01/22 00:01:03;;;;;;;4.30;2.58;;;10.50;99.90;;;;;;4250067;27;20046;-57
2024/01/22 00:03:05;;;;;;;7.20;2.50;;;10.50;99.90;;;;;;4231853;28;20047;-57
2024/01/22 00:05:10;;;;;;;4.72;2.47;;;10.50;99.90;;;;;;4249805;27;20047;-57
2024/01/22 00:07:12;;;;;;;4.50;1.85;;;10.50;99.90;;;;;;4231723;28;20472;-57
2024/01/22 00:09:14;;;;;;;5.05;2.72;;;10.50;99.90;;;;;;4249694;27;20070;-57
2024/01/22 00:11:16;;;;;;;7.13;2.28;;;10.50;99.90;;;;;;4249295;27;20482;-57
2024/01/22 00:13:18;;;;;;;3.63;1.90;;;10.50;99.90;;;;;;4249751;27;20083;-57
2024/01/22 00:15:22;;;;;;;3.28;1.70;;;10.50;99.90;;;;;;4249679;27;20052;-57
2024/01/22 00:17:24;;;;;;;5.53;2.40;;;10.50;99.90;;;;;;4250516;27;20115;-60
2024/01/22 00:19:26;;;;;;;3.42;2.22;;;10.60;99.90;;;;;;4250701;27;20043;-57
2024/01/22 00:21:28;;;;;;;6.88;2.22;;;10.60;99.90;;;;;;4249482;27;20054;-57
2024/01/22 00:23:30;;;;;;;4.95;2.08;;;10.60;99.90;;;;;;4249303;27;20047;-58
2024/01/22 00:25:32;;;;;;;4.32;2.13;;;10.60;99.90;;;;;;4249774;27;20047;-57
2024/01/22 00:27:34;;;;;;;7.20;1.98;;;10.60;99.90;;;;;;4249597;27;20092;-58
2024/01/22 00:29:37;;;;;;;4.90;2.72;;;10.60;99.90;;;;;;4249543;27;20541;-57
2024/01/22 00:31:40;;;;;;;5.47;2.42;;;10.60;99.90;;;;;;4249340;27;20066;-57
2024/01/22 00:33:43;;;;;;;4.05;2.25;;;10.70;99.90;;;;;;4249458;27;20039;-57
2024/01/22 00:35:45;;;;;;;3.50;1.85;;;10.70;99.90;;;;;;4249309;27;20504;-56
2024/01/22 00:37:47;;;;;;;3.97;2.10;;;10.70;99.90;;;;;;4249041;27;20043;-57
2024/01/22 00:39:55;;;;;;;4.88;2.10;;;10.70;99.90;;;;;;4249386;27;20478;-57
2024/01/22 00:41:57;;;;;;;4.38;2.13;;;10.70;99.90;;;;;;4249531;27;20051;-57
2024/01/22 00:43:59;;;;;;;6.03;2.15;;;10.70;99.90;;;;;;4249398;27;20043;-57
2024/01/22 00:46:01;;;;;;;3.60;1.90;;;10.70;99.90;;;;;;4248926;27;20043;-57
2024/01/22 00:48:06;;;;;;;5.40;2.20;;;10.70;99.90;;;;;;4248940;27;20421;-57
2024/01/22 00:50:09;;;;;;;;;;;10.70;99.90;;;;;;4231457;28;20043;-56
2024/01/22 00:52:11;;;;;;;6.68;2.58;;;10.70;99.90;;;;;;4249018;27;19923;-57
2024/01/22 00:54:13;;;;;;;7.43;2.28;;;10.70;99.90;;;;;;4249301;27;20096;-56
2024/01/22 00:56:16;;;;;;;5.65;2.05;;;10.70;99.90;;;;;;4248833;27;20047;-60
2024/01/22 00:58:18;;;;;;;3.80;1.75;;;10.70;99.90;;;;;;4249266;27;20039;-57
2024/01/22 01:00:21;;;;;;;4.72;2.03;;;10.70;99.90;;;;;;4249040;27;20047;-57
2024/01/22 01:02:24;;;;;;;5.80;2.10;;;10.70;99.90;;;;;;4248876;27;20047;-57
2024/01/22 01:04:27;;;;;;;4.38;1.55;;;10.70;99.90;;;;;;4249763;27;20057;-59
2024/01/22 01:06:29;;;;;;;2.72;1.90;;;10.70;99.90;;;;;;4230641;28;20127;-57
2024/01/22 01:08:31;;;;;;;4.00;1.50;;;10.70;99.90;;;;;;4249154;27;20474;-57
2024/01/22 01:10:33;;;;;;;3.30;1.88;;;10.70;99.90;;;;;;4249008;27;20047;-57
2024/01/22 01:12:35;;;;;;;3.92;2.05;;;10.70;99.90;;;;;;4248741;27;20079;-57
2024/01/22 01:14:37;;;;;;;5.97;1.90;;;10.70;99.90;;;;;;4249011;27;20066;-56
2024/01/22 01:16:39;;;;;;;3.92;1.55;;;10.70;99.90;;;;;;4248847;27;20046;-60
2024/01/22 01:18:42;;;;;;;2.83;1.55;;;10.70;99.90;;;;;;4248468;27;20125;-57
2024/01/22 01:20:45;;;;;;;11.18;2.33;;;10.80;99.90;;;;;;4248309;27;20051;-57
2024/01/22 01:22:47;;;;;;;2.20;1.50;;;10.80;99.90;;;;;;4248679;27;20067;-57
2024/01/22 01:24:50;;;;;;;3.42;1.50;;;10.80;99.90;;;;;;4248685;27;20047;-57
2024/01/22 01:26:53;;;;;;;4.88;1.70;;;10.80;99.90;;;;;;4248561;27;20047;-56
2024/01/22 01:28:55;;;;;;;2.30;1.77;;;10.90;99.90;;;;;;4248617;27;20126;-57
2024/01/22 01:30:57;;;;;;;5.07;1.60;;;10.90;99.90;;;;;;4248752;27;20065;-57
2024/01/22 01:32:59;;;;;;;3.80;1.60;;;10.90;99.90;;;;;;4248562;27;20046;-57
2024/01/22 01:35:01;;;;;;;3.33;1.55;;;11.00;99.90;;;;;;4248438;27;20047;-57
2024/01/22 01:37:05;;;;;;;4.55;1.73;;;11.00;99.90;;;;;;4249968;27;20039;-62
2024/01/22 01:39:07;;;;;;;3.47;2.00;;;11.00;99.90;;;;;;4233248;28;20500;-58
2024/01/22 01:41:10;;;;;;;5.57;2.08;;;11.00;99.90;;;;;;4251137;27;20050;-59
2024/01/22 01:43:15;;;;;;;5.80;1.95;;;11.00;99.90;;;;;;4251675;27;20081;-59
2024/01/22 01:45:17;;;;;;;2.80;1.58;;;11.00;99.90;;;;;;4251666;27;20047;-64
2024/01/22 01:47:19;;;;;;;3.67;1.73;;;11.00;99.90;;;;;;4233200;28;20056;-60
2024/01/22 01:49:21;;;;;;;5.20;1.98;;;11.10;99.90;;;;;;4250947;27;20541;-64
2024/01/22 01:51:24;;;;;;;3.42;1.52;;;11.10;99.90;;;;;;4250765;27;20054;-70
2024/01/22 01:53:29;;;;;;;4.30;1.98;;;11.10;99.90;;;;;;4250873;27;20481;-60
2024/01/22 01:55:31;;;;;;;3.58;1.98;;;11.20;99.90;;;;;;4249926;27;20061;-59
2024/01/22 01:57:35;;;;;;;4.43;1.50;;;11.20;99.90;;;;;;4250813;27;20043;-57
2024/01/22 01:59:39;;;;;;;3.38;1.52;;;11.20;99.90;;;;;;4250458;27;20063;-59
2024/01/22 02:01:42;;;;;;;5.50;1.83;;;11.20;99.90;;;;;;4250981;27;20035;-63
2024/01/22 02:03:45;;;;;;;3.20;1.40;;;11.20;99.90;;;;;;4251049;27;20047;-66
2024/01/22 02:05:47;;;;;;;5.50;1.80;;;11.20;99.90;;;;;;4248986;27;20073;-59
2024/01/22 02:07:50;;;;;;;6.82;1.80;;;11.20;99.90;;;;;;4250800;27;20451;-58
2024/01/22 02:09:56;;;;;;;2.58;1.52;;;11.20;99.90;;;;;;4249810;27;20043;-57
2024/01/22 02:11:58;;;;;;;3.40;1.50;;;11.30;99.90;;;;;;4248615;27;20126;-57
2024/01/22 02:14:00;;;;;;;5.35;1.70;;;11.30;99.90;;;;;;4248745;27;20624;-58
2024/01/22 02:16:02;;;;;;;3.47;1.40;;;11.40;99.90;;;;;;4249326;27;20130;-61
2024/01/22 02:18:07;;;;;;;4.78;1.80;;;11.40;99.90;;;;;;4249476;28;20039;-64
2024/01/22 02:20:09;;;;;;;;;;;11.40;99.90;;;;;;4250347;28;20051;-58
2024/01/22 02:22:12;;;;;;;3.47;1.52;;;11.40;99.90;;;;;;4250117;28;19970;-58
2024/01/22 02:24:15;;;;;;;3.55;1.52;;;11.40;99.90;;;;;;4249745;28;20430;-59
2024/01/22 02:26:18;;;;;;;1.92;1.20;;;11.40;99.90;;;;;;4231098;28;20044;-59
2024/01/22 02:28:20;;;;;;;3.42;1.60;;;11.40;99.90;;;;;;4248926;28;20054;-59
2024/01/22 02:30:22;;;;;;;2.10;1.27;;;11.50;99.90;;;;;;4248628;28;20061;-61
2024/01/22 02:32:24;;;;;;;3.15;1.60;;;11.50;99.90;;;;;;4248585;28;20395;-59
2024/01/22 02:34:27;;;;;;;3.05;1.60;;;11.50;99.90;;;;;;4247498;28;20089;-57
2024/01/22 02:36:29;;;;;;;4.75;1.40;;;11.50;99.90;;;;;;4248217;28;20047;-59
2024/01/22 02:38:31;;;;;;;2.40;1.20;;;11.50;99.90;;;;;;4248017;28;20138;-58
2024/01/22 02:40:35;;;;;;;3.58;1.65;;;11.60;99.90;;;;;;4248014;28;20409;-58
2024/01/22 02:42:37;;;;;;;5.45;1.30;;;11.60;99.90;;;;;;4248186;28;20152;-59
2024/01/22 02:44:41;;;;;;;3.13;1.48;;;11.60;99.90;;;;;;4248570;28;20125;-59
2024/01/22 02:46:43;;;;;;;2.58;1.20;;;11.60;99.90;;;;;;4248316;28;20131;-58
2024/01/22 02:48:45;;;;;;;7.65;1.35;;;11.60;99.90;;;;;;4247769;28;20047;-57
2024/01/22 02:50:48;;;;;;;2.83;1.60;;;11.60;99.90;;;;;;4247786;28;20145;-57
2024/01/22 02:52:50;;;;;;;3.17;1.60;;;11.60;99.90;;;;;;4248145;28;20071;-58
2024/01/22 02:54:52;;;;;;;1.88;1.50;;;11.60;99.90;;;;;;4247592;28;20473;-57
2024/01/22 02:56:55;;;;;;;6.25;1.60;;;11.60;99.90;;;;;;4247921;28;20043;-57
2024/01/22 02:58:58;;;;;;;3.13;1.35;;;11.60;99.90;;;;;;4229706;28;20122;-57
2024/01/22 03:01:00;;;;;;;2.15;1.35;;;11.60;99.90;;;;;;4247831;28;20051;-57
2024/01/22 03:03:03;;;;;;;3.55;1.55;;;11.60;99.90;;;;;;4247373;28;20485;-57
2024/01/22 03:05:07;;;;;;;2.92;1.70;;;11.70;99.90;;;;;;4247887;28;20043;-58
2024/01/22 03:07:09;;;;;;;2.33;1.20;;;11.70;99.90;;;;;;4247955;28;20047;-59
2024/01/22 03:09:12;;;;;;;2.70;1.40;;;11.60;99.90;;;;;;4247392;28;20043;-58
2024/01/22 03:11:15;;;;;;;2.90;1.38;;;11.70;99.90;;;;;;4247910;27;20043;-59
2024/01/22 03:13:18;;;;;;;3.50;1.50;;;11.60;99.90;;;;;;4251144;27;20483;-57
2024/01/22 03:15:21;;;;;;;3.20;1.40;;;11.70;99.90;;;;;;4232320;28;20063;-60
2024/01/22 03:17:23;;;;;;;2.05;1.42;;;11.70;99.90;;;;;;4250603;27;20129;-56
2024/01/22 03:19:25;;;;;;;2.63;1.20;;;11.70;99.90;;;;;;4251006;27;20050;-56
2024/01/22 03:21:28;;;;;;;3.75;1.35;;;11.70;99.90;;;;;;4250708;27;20058;-56
2024/01/22 03:23:30;;;;;;;1.30;1.00;;;11.70;99.90;;;;;;4250799;27;20439;-56
2024/01/22 03:25:32;;;;;;;2.67;1.30;;;11.70;99.90;;;;;;4250848;27;20409;-62
2024/01/22 03:27:34;;;;;;;4.63;1.40;;;11.70;99.90;;;;;;4252001;27;20043;-58
2024/01/22 03:29:39;;;;;;;2.28;1.13;;;11.70;99.90;;;;;;4251106;27;20047;-58
2024/01/22 03:31:41;;;;;;;3.03;1.13;;;11.60;99.90;;;;;;4250683;27;20126;-59
2024/01/22 03:33:43;;;;;;;3.10;1.10;;;11.70;99.90;;;;;;4250750;27;20043;-57
2024/01/22 03:35:46;;;;;;;2.58;1.17;;;11.70;99.90;;;;;;4250669;27;20100;-58
2024/01/22 03:37:48;;;;;;;1.50;1.10;;;11.70;99.90;;;;;;4250459;27;20035;-62
2024/01/22 03:39:50;;;;;;;2.80;1.42;;;11.60;99.90;;;;;;4250470;27;20073;-57
2024/01/22 03:41:53;;;;;;;3.08;1.38;;;11.60;99.90;;;;;;4250408;27;20064;-56
2024/01/22 03:43:55;;;;;;;3.03;1.40;;;11.60;99.90;;;;;;4250362;27;20126;-57
2024/01/22 03:45:59;;;;;;;3.13;1.30;;;11.60;99.90;;;;;;4249514;27;20047;-57
2024/01/22 03:48:01;;;;;;;2.53;1.10;;;11.60;99.90;;;;;;4250197;27;20075;-57
2024/01/22 03:50:07;;;;;;;2.53;1.27;;;11.60;99.90;;;;;;4250209;27;20490;-59
2024/01/22 03:52:09;;;;;;;3.88;1.33;;;11.60;99.90;;;;;;4250410;27;20047;-57
2024/01/22 03:54:12;;;;;;;3.05;1.40;;;11.60;99.90;;;;;;4250300;27;20476;-58
2024/01/22 03:56:14;;;;;;;2.72;1.10;;;11.60;99.90;;;;;;4250182;27;20050;-57
2024/01/22 03:58:17;;;;;;;3.13;1.52;;;11.60;99.90;;;;;;4250256;27;20043;-57
2024/01/22 04:00:19;;;;;;;2.75;1.25;;;11.60;99.90;;;;;;4231486;28;20395;-57
2024/01/22 04:02:23;;;;;;;2.45;1.20;;;11.60;99.90;;;;;;4249662;27;20409;-57
2024/01/22 04:04:25;;;;;;;4.07;1.38;;;11.60;99.90;;;;;;4249750;27;20045;-57
2024/01/22 04:06:27;;;;;;;2.85;1.40;;;11.60;99.90;;;;;;4249593;27;20043;-57
2024/01/22 04:08:29;;;;;;;2.10;1.40;;;11.60;99.90;;;;;;4249987;27;20039;-57
2024/01/22 04:10:32;;;;;;;2.10;1.10;;;11.70;99.90;;;;;;4249610;27;20069;-57
2024/01/22 04:12:34;;;;;;;2.88;1.52;;;11.70;99.90;;;;;;4249556;27;20138;-57
2024/01/22 04:14:36;;;;;;;1.80;1.30;;;11.70;99.90;;;;;;4249674;27;20043;-57
2024/01/22 04:16:38;;;;;;;3.33;1.50;;;11.70;99.90;;;;;;4249610;27;20043;-57
2024/01/22 04:18:42;;;;;;;3.80;1.30;;;11.80;99.90;;;;;;4249731;27;20050;-57
2024/01/22 04:20:45;;;;;;;3.03;1.50;;;11.70;99.90;;;;;;4249462;27;20043;-56
2024/01/22 04:22:47;;;;;;;3.53;1.45;;;11.80;99.90;;;;;;4248836;27;20073;-57
2024/01/22 04:24:49;;;;;;;3.33;1.45;;;11.70;99.90;;;;;;4249377;27;20120;-57
2024/01/22 04:26:51;;;;;;;4.80;1.20;;;11.70;99.90;;;;;;4249462;27;20078;-59
2024/01/22 04:28:53;;;;;;;2.70;1.20;;;11.70;99.90;;;;;;4249795;27;20051;-57
2024/01/22 04:30:55;;;;;;;4.40;1.23;;;11.80;99.90;;;;;;4248951;27;20050;-57
2024/01/22 04:32:58;;;;;;;2.80;1.30;;;11.70;99.90;;;;;;4231333;28;20443;-57
2024/01/22 04:35:04;;;;;;;2.65;1.15;;;11.70;99.90;;;;;;4249415;27;20043;-58
2024/01/22 04:37:06;;;;;;;4.32;1.38;;;11.80;99.90;;;;;;4249601;27;20043;-57
2024/01/22 04:39:08;;;;;;;2.13;1.48;;;11.80;99.90;;;;;;4249340;27;20409;-57
2024/01/22 04:41:10;;;;;;;1.77;0.90;;;11.80;99.90;;;;;;4249423;27;20086;-57
2024/01/22 04:43:12;;;;;;;4.93;1.60;;;11.70;99.90;;;;;;4249274;27;20050;-57
2024/01/22 04:45:14;;;;;;;2.95;1.13;;;11.80;99.90;;;;;;4248998;27;20078;-57
2024/01/22 04:47:17;;;;;;;2.28;1.33;;;11.90;99.90;;;;;;4249147;27;20043;-58
2024/01/22 04:49:19;;;;;;;4.07;1.50;;;11.80;99.90;;;;;;4231098;28;20463;-57
2024/01/22 04:51:22;;;;;;;2.70;1.20;;;11.90;99.90;;;;;;4249080;27;20050;-57
2024/01/22 04:53:24;;;;;;;3.38;1.27;;;11.80;99.90;;;;;;4248842;27;20070;-57
2024/01/22 04:55:26;;;;;;;3.42;1.30;;;11.90;99.90;;;;;;4248782;27;20472;-58
2024/01/22 04:57:35;;;;;;;2.83;1.10;;;11.80;99.90;;;;;;4248946;27;20126;-56
2024/01/22 04:59:37;;;;;;;4.32;1.35;;;11.90;99.90;;;;;;4248543;27;20471;-57
2024/01/22 05:01:40;;;;;;;3.30;1.02;;;11.80;99.90;;;;;;4248771;27;20478;-57
2024/01/22 05:03:42;;;;;;;2.30;1.00;;;11.80;99.90;;;;;;4248925;27;20051;-57
2024/01/22 05:05:44;;;;;;;2.40;1.58;;;11.90;99.90;;;;;;4248780;27;20043;-57
2024/01/22 05:07:48;;;;;;;2.17;1.10;;;11.80;99.90;;;;;;4248864;27;20092;-57
2024/01/22 05:09:55;;;;;;;4.47;1.58;;;11.80;99.90;;;;;;4248833;27;20051;-57
2024/01/22 05:11:57;;;;;;;5.90;1.55;;;11.80;99.90;;;;;;4248490;27;20047;-57
2024/01/22 05:14:03;;;;;;;3.05;1.17;;;11.80;99.90;;;;;;4248378;27;20047;-56
2024/01/22 05:16:05;;;;;;;4.03;1.52;;;11.80;99.90;;;;;;4249732;27;20100;-59
2024/01/22 05:18:07;;;;;;;3.92;1.20;;;11.80;99.90;;;;;;4249627;27;20047;-59
2024/01/22 05:20:10;;;;;;;3.60;1.30;;;11.80;99.90;;;;;;4249227;27;20358;-57
2024/01/22 05:22:12;;;;;;;4.35;1.40;;;11.80;99.90;;;;;;4249284;27;20147;-56
2024/01/22 05:24:18;;;;;;;3.05;1.00;;;11.80;99.90;;;;;;4250077;27;20073;-58
2024/01/22 05:26:20;;;;;;;2.63;1.30;;;11.80;99.90;;;;;;4249638;27;20119;-59
2024/01/22 05:28:22;;;;;;;1.45;0.90;;;11.80;99.90;;;;;;4249420;27;20070;-57
2024/01/22 05:30:24;;;;;;;2.72;1.40;;;11.80;99.90;;;;;;4248852;27;20043;-58
2024/01/22 05:32:27;;;;;;;2.70;1.20;;;11.80;99.90;;;;;;4248898;27;20428;-57
2024/01/22 05:34:29;;;;;;;2.47;1.20;;;11.80;99.90;;;;;;4248600;27;20478;-57
2024/01/22 05:36:31;;;;;;;2.58;1.10;;;11.80;99.90;;;;;;4248404;27;20116;-55
2024/01/22 05:38:33;;;;;;;2.38;1.15;;;11.80;99.90;;;;;;4248469;27;20043;-54
2024/01/22 05:40:37;;;;;;;3.75;1.52;;;11.80;99.90;;;;;;4248250;27;20469;-56
2024/01/22 05:42:39;;;;;;;2.55;1.17;;;11.90;99.90;;;;;;4247732;27;20039;-54
2024/01/22 05:44:43;;;;;;;3.90;1.40;;;11.80;99.90;;;;;;4248310;27;20051;-56
2024/01/22 05:46:45;;;;;;;2.72;1.52;;;11.90;99.90;;;;;;4248061;27;20043;-56
2024/01/22 05:48:47;;;;;;;3.42;1.20;;;11.90;99.90;;;;;;4229869;28;20427;-55
2024/01/22 05:50:50;;;;;;;4.50;1.10;;;11.80;99.90;;;;;;4248047;27;20043;-55
2024/01/22 05:52:53;;;;;;;2.45;1.13;;;11.80;99.90;;;;;;4248034;27;20142;-55
2024/01/22 05:54:55;;;;;;;2.72;1.30;;;11.80;99.90;;;;;;4248232;27;20047;-59
2024/01/22 05:56:58;;;;;;;3.60;1.25;;;11.80;99.90;;;;;;4248113;27;20459;-55
2024/01/22 05:59:00;;;;;;;2.65;1.00;;;11.80;99.90;;;;;;4248283;27;20054;-55
2024/01/22 06:01:02;;;;;;;2.60;1.10;;;11.90;99.90;;;;;;4229787;28;20047;-55
2024/01/22 06:03:05;;;;;;;3.00;0.95;;;11.80;99.90;;;;;;4248198;27;20039;-56
2024/01/22 06:05:09;;;;;;;3.65;1.20;;;11.80;99.90;;;;;;4248109;27;20379;-55
2024/01/22 06:07:11;;;;;;;5.13;1.23;;;11.80;99.90;;;;;;4247883;27;20043;-56
2024/01/22 06:09:14;;;;;;;1.52;1.10;;;11.70;99.90;;;;;;4247946;27;20043;-55
2024/01/22 06:11:17;;;;;;;1.80;1.13;;;11.80;99.90;;;;;;4229138;28;20065;-55
2024/01/22 06:13:21;;;;;;;3.88;1.73;;;11.80;99.90;;;;;;4247983;27;20099;-56
2024/01/22 06:15:23;;;;;;;3.78;1.17;;;11.80;99.90;;;;;;4248000;27;20051;-55
2024/01/22 06:17:30;;;;;;;6.15;1.40;;;11.80;99.90;;;;;;4247955;28;20122;-55
2024/01/22 06:19:33;;;;;;;2.30;1.10;;;11.80;99.90;;;;;;4247836;28;20047;-56
2024/01/22 06:21:35;;;;;;;3.60;1.23;;;11.80;99.90;;;;;;4248208;28;20096;-55
2024/01/22 06:23:37;;;;;;;5.65;1.10;;;11.80;99.90;;;;;;4247831;28;20398;-54
2024/01/22 06:25:39;;;;;;;4.40;1.40;;;11.70;99.90;;;;;;4247565;28;20055;-56
2024/01/22 06:27:44;;;;;;;5.22;1.30;;;11.70;99.90;;;;;;4247813;28;20043;-55
2024/01/22 06:29:47;;;;;;;;;;;11.70;99.90;;;;;;4248143;28;20043;-56
2024/01/22 06:31:49;;;;;;;2.83;1.17;;;11.70;99.90;;;;;;4247689;28;19920;-55
2024/01/22 06:33:51;;;;;;;3.58;1.35;;;11.70;99.90;;;;;;4247738;28;20062;-56
2024/01/22 06:35:54;;;;;;;2.55;1.45;;;11.60;99.90;;;;;;4247803;28;20448;-59
2024/01/22 06:37:56;;;;;;;5.05;1.42;;;11.70;99.90;;;;;;4247657;28;20078;-57
2024/01/22 06:40:00;;;;;;;3.70;1.17;;;11.60;99.90;;;;;;4247498;28;20043;-58
2024/01/22 06:42:02;;;;;;;2.38;1.00;;;11.60;99.90;;;;;;4247622;28;20043;-58
2024/01/22 06:44:05;;;;;;;5.55;1.20;;;11.60;99.90;;;;;;4247765;28;20074;-61
2024/01/22 06:46:09;;;;;;;2.92;1.20;;;11.60;99.90;;;;;;4248484;27;20043;-58
2024/01/22 06:48:11;;;;;;;2.50;1.17;;;11.50;99.90;;;;;;4250930;27;20063;-58
2024/01/22 06:50:14;;;;;;;2.17;1.08;;;11.50;99.90;;;;;;4251027;27;20044;-57
2024/01/22 06:52:16;;;;;;;3.58;1.20;;;11.50;99.90;;;;;;4251118;27;20130;-57
2024/01/22 06:54:19;;;;;;;3.38;1.20;;;11.50;99.90;;;;;;4250639;27;20134;-57
2024/01/22 06:56:25;;;;;;;2.92;1.40;;;11.60;99.90;;;;;;4251153;27;20054;-57
2024/01/22 06:58:26;;;;;;;3.67;1.30;;;11.50;99.90;;;;;;4250751;27;20133;-57
2024/01/22 07:00:30;;;;;;;2.42;1.10;;;11.50;99.90;;;;;;4251046;27;20425;-57
2024/01/22 07:02:35;;;;;;;5.47;1.17;;;11.50;99.90;;;;;;4250987;27;20043;-58
2024/01/22 07:04:37;;;;;;;2.53;1.33;;;11.60;99.90;;;;;;4251387;27;20047;-62
2024/01/22 07:06:39;;;;;;;1.80;1.13;;;11.50;99.90;;;;;;4252820;27;20046;-58
2024/01/22 07:08:41;;;;;;;3.13;1.27;;;11.50;99.90;;;;;;4251009;27;20047;-58
2024/01/22 07:10:43;;;;;;;3.53;1.48;;;11.50;99.90;;;;;;4250626;27;20051;-58
2024/01/22 07:12:46;;;;;;;4.43;1.42;;;11.50;99.90;;;;;;4232460;27;20064;-58
2024/01/22 07:14:48;;;;;;;4.45;1.20;;;11.50;99.90;;;;;;4250832;27;20478;-57
2024/01/22 07:16:50;;;;;;;2.25;1.08;;;11.50;99.90;;;;;;4250429;27;20471;-57
2024/01/22 07:18:56;;;;;;;4.18;1.27;;;11.50;99.90;;;;;;4250692;27;20043;-57
2024/01/22 07:20:58;;;;;;;3.83;1.55;;;11.40;99.90;;;;;;4250759;27;20424;-58
2024/01/22 07:23:01;;;;;;;3.15;1.42;;;11.40;99.90;;;;;;4251004;27;20119;-58
2024/01/22 07:25:05;;;;;;;2.05;1.20;;;11.40;99.90;;;;;;4250217;27;20096;-59
2024/01/22 07:27:07;;;;;;;3.38;1.70;;;11.40;99.90;;;;;;4250525;27;20044;-59
2024/01/22 07:29:09;;;;;;;3.65;1.60;;;11.40;99.90;;;;;;4250480;27;20050;-58
2024/01/22 07:31:11;;;;;;;1.92;1.20;;;11.40;99.90;;;;;;4251103;27;20035;-58
2024/01/22 07:33:13;;;;;;;4.38;1.40;;;11.40;99.90;;;;;;4250845;27;20051;-58
2024/01/22 07:35:17;;;;;;;4.82;1.67;;;11.50;99.90;;;;;;4250713;27;20047;-57
2024/01/22 07:37:19;;;;;;;4.93;1.40;;;11.50;99.90;;;;;;4250487;27;20061;-57
2024/01/22 07:39:21;;;;;;;6.50;1.88;;;11.50;99.90;;;;;;4250147;27;20050;-58
2024/01/22 07:41:24;;;;;;;3.22;1.40;;;11.50;99.90;;;;;;4250469;27;20504;-57
2024/01/22 07:43:26;;;;;;;5.03;1.75;;;11.50;99.90;;;;;;4250447;27;20397;-59
2024/01/22 07:45:28;;;;;;;2.25;1.00;;;11.60;99.90;;;;;;4232170;27;20126;-58
2024/01/22 07:47:30;;;;;;;3.13;1.45;;;11.60;99.90;;;;;;4249955;27;20047;-57
2024/01/22 07:49:32;;;;;;;8.07;1.55;;;11.70;99.90;;;;;;4250240;27;20039;-57
2024/01/22 07:51:36;;;;;;;3.42;1.48;;;11.70;99.90;;;;;;4250213;27;20051;-58
2024/01/22 07:53:38;;;;;;;4.28;1.30;;;11.80;99.90;;;;;;4249933;27;20081;-57
2024/01/22 07:55:40;;;;;;;4.80;1.50;;;11.80;99.90;;;;;;4249857;27;20465;-57
2024/01/22 07:57:42;;;;;;;3.92;1.60;;;11.80;99.90;;;;;;4248940;27;20047;-58
2024/01/22 07:59:44;;;;;;;6.82;1.40;;;11.80;99.90;;;;;;4249745;27;20421;-58
2024/01/22 08:01:47;;;;;;;4.32;1.30;;;11.80;99.90;;;;;;4249897;27;20044;-57
2024/01/22 08:03:49;;;;;;;7.00;1.33;;;11.90;99.90;;;;;;4249641;27;20043;-57
2024/01/22 08:05:51;;;;;;;4.57;1.45;;;11.90;99.90;;;;;;4249777;27;20082;-56
2024/01/22 08:07:55;;;;;;;6.50;1.48;;;11.90;99.90;;;;;;4249369;27;20426;-55
2024/01/22 08:09:59;;;;;;;5.22;1.50;;;11.90;99.90;;;;;;4249724;27;20043;-56
2024/01/22 08:12:02;;;;;;;3.10;1.33;;;12.00;99.90;;;;;;4249578;27;20054;-56
2024/01/22 08:14:05;;;;;;;5.82;1.90;;;12.00;99.90;;;;;;4249857;27;20051;-55
2024/01/22 08:16:07;;;;;;;5.25;1.65;;;12.00;99.90;;;;;;4231602;28;20077;-55
2024/01/22 08:18:09;;;;;;;10.15;2.28;;;12.00;99.90;;;;;;4249733;27;20047;-55
2024/01/22 08:20:12;;;;;;;3.50;1.42;;;12.10;99.90;;;;;;4249636;27;20047;-57
2024/01/22 08:22:14;;;;;;;7.82;1.55;;;12.10;99.90;;;;;;4249637;27;20039;-59
2024/01/22 08:24:17;;;;;;;7.95;2.13;;;12.10;99.90;;;;;;4232456;28;20510;-58
2024/01/22 08:26:19;;;;;;;4.78;1.77;;;12.10;99.90;;;;;;4250745;27;20050;-62
2024/01/22 08:28:21;;;;;;;12.63;2.55;;;12.20;99.90;;;;;;4250668;27;20087;-59
2024/01/22 08:30:24;;;;;;;10.35;1.85;;;12.20;99.90;;;;;;4249959;27;20059;-55
2024/01/22 08:32:26;;;;;;;7.28;1.80;;;12.20;99.90;;;;;;4231421;28;20430;-56
2024/01/22 08:34:28;;;;;;;6.13;1.90;;;12.10;99.90;;;;;;4249681;27;20167;-55
2024/01/22 08:36:31;;;;;;;9.07;2.08;;;12.10;99.90;;;;;;4249253;27;20043;-56
2024/01/22 08:38:33;;;;;;;8.25;1.88;;;12.10;99.90;;;;;;4249371;27;20050;-55
2024/01/22 08:40:37;;;;;;;7.55;1.67;;;12.10;99.90;;;;;;4249276;27;20117;-57
2024/01/22 08:42:39;;;;;;;7.38;1.88;;;12.00;99.90;;;;;;4249898;27;20531;-57
2024/01/22 08:44:41;;;;;;;9.20;2.00;;;12.00;99.90;;;;;;4249665;27;20047;-56
2024/01/22 08:46:43;;;;;;;8.40;1.90;;;12.00;99.90;;;;;;4231202;28;20101;-56
2024/01/22 08:48:45;;;;;;;9.77;2.50;;;12.00;99.90;;;;;;4249158;27;20126;-55
2024/01/22 08:50:48;;;;;;;9.13;2.00;;;12.00;99.90;;;;;;4248829;27;20043;-57
2024/01/22 08:52:53;;;;;;;10.45;2.20;;;12.10;99.90;;;;;;4249179;27;20051;-56
2024/01/22 08:54:56;;;;;;;8.57;1.50;;;12.10;99.90;;;;;;4249319;27;20053;-56
2024/01/22 08:56:59;;;;;;;9.50;1.90;;;12.10;99.90;;;;;;4249500;27;20398;-56
2024/01/22 08:59:01;;;;;;;8.70;2.28;;;12.10;99.90;;;;;;4249085;27;20079;-55
2024/01/22 09:01:05;;;;;;;7.50;2.13;;;12.10;99.90;;;;;;4248888;27;20043;-56
2024/01/22 09:03:10;;;;;;;14.70;2.38;;;12.10;99.90;;;;;;4249180;27;20067;-57
2024/01/22 09:05:14;;;;;;;10.63;2.42;;;12.10;99.90;;;;;;4248275;27;20047;-57
2024/01/22 09:07:16;;;;;;;8.00;2.28;;;12.00;99.90;;;;;;4248918;27;20101;-58
2024/01/22 09:09:18;;;;;;;11.05;2.50;;;12.10;99.90;;;;;;4248669;27;20047;-57
2024/01/22 09:11:21;;;;;;;8.75;1.88;;;12.10;99.90;;;;;;4248825;27;20039;-57
2024/01/22 09:13:24;;;;;;;7.05;1.80;;;12.10;99.90;;;;;;4248659;27;20414;-58
2024/01/22 09:15:27;;;;;;;9.75;2.10;;;12.10;99.90;;;;;;4248623;27;20375;-61
2024/01/22 09:17:30;;;;;;;6.35;1.70;;;12.10;99.90;;;;;;4248791;27;20054;-57
2024/01/22 09:19:32;;;;;;;8.13;1.60;;;12.10;99.90;;;;;;4248476;27;20067;-58
2024/01/22 09:21:35;;;;;;;7.85;1.35;;;12.20;99.90;;;;;;4248574;27;20047;-57
2024/01/22 09:23:37;;;;;;;6.13;1.83;;;12.10;99.90;;;;;;4248296;27;20064;-57
2024/01/22 09:25:41;;;;;;;6.20;1.77;;;12.20;99.90;;;;;;4248695;27;20051;-57
2024/01/22 09:27:43;;;;;;;10.32;1.80;;;12.30;99.90;;;;;;4248763;27;20043;-55
2024/01/22 09:29:47;;;;;;;10.18;2.42;;;12.30;99.90;;;;;;4248676;27;20047;-55
2024/01/22 09:31:49;;;;;;;8.43;2.30;;;12.30;99.90;;;;;;4249369;27;20470;-57
2024/01/22 09:33:53;;;;;;;9.50;2.00;;;12.40;99.90;;;;;;4249005;27;20084;-55
2024/01/22 09:35:56;;;;;;;15.90;3.22;;;12.40;99.90;;;;;;4248992;27;20043;-55
2024/01/22 09:38:01;;;;;;;13.70;3.50;;;12.50;99.90;;;;;;4248766;27;20044;-55
2024/01/22 09:40:06;;;;;;;14.48;3.78;;;12.60;99.90;;;;;;4248385;27;20054;-55
2024/01/22 09:42:14;;;;;;;16.15;3.70;;;12.60;99.90;;;;;;4248296;27;20047;-55
2024/01/22 09:44:20;;;;;;;19.65;3.92;;;12.70;99.90;;;;;;4248189;27;20047;-55
2024/01/22 09:46:24;;;;;;;22.73;4.72;;;12.80;99.90;;;;;;4248155;27;20046;-56
2024/01/22 09:48:29;;;;;;;18.25;3.45;;;12.80;99.90;;;;;;4247921;27;20039;-58
2024/01/22 09:50:32;;;;;;;19.70;4.33;;;12.90;99.90;;;;;;4249119;27;20043;-58
2024/01/22 09:52:35;;;;;;;19.02;4.55;;;12.90;99.90;;;;;;4248509;27;20439;-56
2024/01/22 09:54:37;;;;;;;13.95;4.03;;;12.90;99.90;;;;;;4249312;27;20051;-61
2024/01/22 09:56:39;;;;;;;15.65;3.80;;;12.90;99.90;;;;;;4248478;27;20063;-56
2024/01/22 09:58:45;;;;;;;16.88;3.72;;;13.00;99.90;;;;;;4248822;27;20054;-56
2024/01/22 10:00:48;;;;;;;21.23;4.28;;;13.00;99.90;;;;;;4248410;27;20130;-55
2024/01/22 10:02:51;;;;;;;22.92;4.78;;;13.00;99.90;;;;;;4247552;27;20051;-55
2024/01/22 10:04:54;;;;;;;18.88;4.80;;;13.00;99.90;;;;;;4248240;27;20055;-56
2024/01/22 10:06:58;;;;;;;26.48;6.20;;;13.00;99.90;;;;;;4247965;27;20043;-56
2024/01/22 10:09:00;;;;;;;30.67;5.95;;;13.10;99.90;;;;;;4247873;27;20043;-58
2024/01/22 10:11:03;;;;;;;27.17;5.55;;;13.10;99.90;;;;;;4247893;27;20047;-58
2024/01/22 10:13:07;;;;;;;24.15;5.43;;;13.10;99.90;;;;;;4247489;27;20047;-57
2024/01/22 10:15:13;;;;;;;22.63;5.43;;;13.10;99.90;;;;;;4248024;27;20131;-57
2024/01/22 10:17:16;;;;;;;19.83;4.93;;;13.10;99.90;;;;;;4247564;27;20050;-56
2024/01/22 10:19:26;;;;;;;27.75;6.32;;;13.00;99.90;;;;;;4229670;28;20466;-60
2024/01/22 10:21:35;;;;;;;30.92;6.25;;;13.10;99.90;;;;;;4247225;27;20043;-57
2024/01/22 10:23:40;;;;;;;30.33;7.57;;;13.00;99.90;;;;;;4247877;28;20383;-57
2024/01/22 10:25:44;;;;;;;21.88;5.85;;;12.90;99.90;;;;;;4247846;28;20104;-57
2024/01/22 10:27:46;;;;;;;30.98;6.55;;;12.70;99.90;;;;;;4247816;28;20055;-57
2024/01/22 10:29:49;;;;;;;22.33;5.07;;;12.60;99.90;;;;;;4247894;28;20047;-57
2024/01/22 10:31:55;;;;;;;25.48;5.53;;;12.50;99.90;;;;;;4247621;28;20164;-57
2024/01/22 10:34:04;;;;;;;16.73;4.10;;;12.40;99.90;;;;;;4247611;28;20163;-57
2024/01/22 10:36:16;;;;;;;18.55;4.07;;;12.40;99.90;;;;;;4247707;28;20095;-58
2024/01/22 10:38:19;;;;;;;17.75;4.20;;;12.30;99.90;;;;;;4247878;28;20405;-57